createdAt,value
2022-12-08T00:01:27.368Z,64.20
2022-12-08T00:03:53.981Z,65.08
2022-12-08T00:06:20.457Z,64.57
2022-12-08T00:08:46.899Z,64.50
2022-12-08T00:11:13.299Z,64.84
2022-12-08T00:13:39.727Z,65.04
2022-12-08T00:16:06.216Z,64.05
2022-12-08T00:18:32.778Z,63.45
2022-12-08T00:20:59.272Z,62.68
2022-12-08T00:23:26.620Z,63.51
2022-12-08T00:25:53.056Z,63.63
2022-12-08T00:28:19.467Z,63.55
2022-12-08T00:30:45.903Z,62.94
2022-12-08T00:33:12.333Z,63.46
2022-12-08T00:35:42.928Z,63.44
2022-12-08T00:38:09.734Z,63.03
2022-12-08T00:40:36.131Z,62.45
2022-12-08T00:43:02.540Z,63.49
2022-12-08T00:45:29.084Z,61.64
2022-12-08T00:47:55.620Z,60.93
2022-12-08T00:50:22.025Z,62.55
2022-12-08T00:52:48.470Z,61.97
2022-12-08T00:55:15.411Z,62.20
2022-12-08T00:57:42.016Z,62.39
2022-12-08T01:00:08.503Z,62.80
2022-12-08T01:02:34.929Z,63.54
2022-12-08T01:05:01.484Z,63.60
2022-12-08T01:07:27.899Z,63.36
2022-12-08T01:09:54.303Z,62.59
2022-12-08T01:12:20.781Z,62.64
2022-12-08T01:14:47.249Z,61.05
2022-12-08T01:17:13.756Z,62.24
2022-12-08T01:19:40.246Z,62.09
2022-12-08T01:22:06.646Z,62.30
2022-12-08T01:24:33.062Z,61.04
2022-12-08T01:26:59.493Z,61.54
2022-12-08T01:29:25.946Z,62.55
2022-12-08T01:31:52.400Z,61.97
2022-12-08T01:34:18.889Z,62.76
2022-12-08T01:36:45.301Z,62.11
2022-12-08T01:39:11.764Z,62.13
2022-12-08T01:41:38.603Z,62.03
2022-12-08T01:44:05.196Z,62.75
2022-12-08T01:46:31.702Z,63.21
2022-12-08T01:48:58.166Z,63.33
2022-12-08T01:51:24.594Z,62.45
2022-12-08T01:53:51.036Z,62.78
2022-12-08T01:56:17.461Z,62.99
2022-12-08T01:58:43.867Z,62.73
2022-12-08T02:01:10.393Z,63.04
2022-12-08T02:03:36.867Z,62.84
2022-12-08T02:06:03.261Z,63.09
2022-12-08T02:08:29.709Z,63.87
2022-12-08T02:10:56.183Z,64.27
2022-12-08T02:13:22.605Z,64.91
2022-12-08T02:15:49.082Z,64.21
2022-12-08T02:18:15.562Z,65.08
2022-12-08T02:20:41.972Z,64.98
2022-12-08T02:23:08.396Z,65.21
2022-12-08T02:25:34.928Z,64.73
2022-12-08T02:28:01.348Z,63.93
2022-12-08T02:30:27.836Z,64.74
2022-12-08T02:32:54.280Z,63.13
2022-12-08T02:35:20.792Z,64.81
2022-12-08T02:37:47.238Z,64.89
2022-12-08T02:40:13.679Z,63.93
2022-12-08T02:42:40.138Z,64.49
2022-12-08T02:45:06.595Z,63.72
2022-12-08T02:47:33.038Z,64.08
2022-12-08T02:49:59.489Z,63.17
2022-12-08T02:52:26.023Z,63.79
2022-12-08T02:54:52.490Z,62.50
2022-12-08T02:57:18.926Z,61.53
2022-12-08T02:59:45.357Z,62.22
2022-12-08T03:02:11.839Z,62.37
2022-12-08T03:04:38.304Z,61.73
2022-12-08T03:07:04.737Z,62.18
2022-12-08T03:09:31.188Z,62.60
2022-12-08T03:11:57.658Z,61.93
2022-12-08T03:14:24.087Z,62.26
2022-12-08T03:16:50.524Z,62.64
2022-12-08T03:19:16.962Z,63.61
2022-12-08T03:21:43.451Z,62.97
2022-12-08T03:24:09.905Z,62.60
2022-12-08T03:26:36.330Z,63.46
2022-12-08T03:29:02.768Z,63.86
2022-12-08T03:31:29.260Z,63.16
2022-12-08T03:33:55.735Z,63.25
2022-12-08T03:36:22.374Z,63.81
2022-12-08T03:38:48.981Z,63.32
2022-12-08T03:41:15.417Z,62.81
2022-12-08T03:43:41.847Z,61.63
2022-12-08T03:46:08.315Z,60.54
2022-12-08T03:48:35.336Z,59.76
2022-12-08T03:51:01.779Z,61.63
2022-12-08T03:53:28.207Z,60.34
2022-12-08T03:55:54.627Z,60.99
2022-12-08T03:58:21.071Z,60.44
2022-12-08T04:00:47.510Z,61.28
2022-12-08T04:03:14.946Z,62.03
2022-12-08T04:05:42.499Z,61.91
2022-12-08T04:08:09.022Z,62.56
2022-12-08T04:10:35.514Z,62.81
2022-12-08T04:13:01.916Z,62.65
2022-12-08T04:15:28.320Z,62.29
2022-12-08T04:17:54.760Z,61.45
2022-12-08T04:20:21.192Z,62.05
2022-12-08T04:22:47.591Z,62.00
2022-12-08T04:25:14.146Z,63.15
2022-12-08T04:27:40.585Z,62.06
2022-12-08T04:30:07.258Z,61.81
2022-12-08T04:32:33.930Z,59.97
2022-12-08T04:35:00.365Z,61.41
2022-12-08T04:37:26.801Z,61.56
2022-12-08T04:39:53.228Z,62.32
2022-12-08T04:42:19.642Z,62.08
2022-12-08T04:44:46.077Z,62.27
2022-12-08T04:47:12.551Z,62.27
2022-12-08T04:49:39.038Z,62.53
2022-12-08T04:52:05.481Z,61.66
2022-12-08T04:54:31.906Z,62.25
2022-12-08T04:56:58.328Z,62.98
2022-12-08T04:59:24.772Z,63.23
2022-12-08T05:01:51.334Z,63.80
2022-12-08T05:04:17.840Z,63.61
2022-12-08T05:06:44.282Z,63.45
2022-12-08T05:09:10.703Z,63.95
2022-12-08T05:11:37.143Z,63.83
2022-12-08T05:14:03.582Z,63.61
2022-12-08T05:16:30.106Z,64.26
2022-12-08T05:18:56.625Z,64.48
2022-12-08T05:21:23.038Z,63.90
2022-12-08T05:23:49.499Z,64.03
2022-12-08T05:26:15.937Z,64.40
2022-12-08T05:28:43.598Z,64.88
2022-12-08T05:31:10.424Z,65.79
2022-12-08T05:33:36.918Z,65.37
2022-12-08T05:36:03.444Z,65.83
2022-12-08T05:38:29.897Z,66.13
2022-12-08T05:40:56.332Z,66.77
2022-12-08T05:43:22.799Z,66.31
2022-12-08T05:45:49.279Z,66.86
2022-12-08T05:48:15.798Z,66.59
2022-12-08T05:50:42.924Z,67.24
2022-12-08T05:53:09.534Z,66.55
2022-12-08T05:55:36.120Z,66.80
2022-12-08T05:58:07.837Z,66.64
2022-12-08T06:00:35.323Z,66.11
2022-12-08T06:03:01.789Z,66.41
2022-12-08T06:05:28.363Z,67.33
2022-12-08T06:07:54.954Z,67.26
2022-12-08T06:10:21.429Z,66.44
2022-12-08T06:12:47.830Z,65.98
2022-12-08T06:15:14.314Z,66.14
2022-12-08T06:17:40.749Z,66.40
2022-12-08T06:20:07.449Z,66.83
2022-12-08T06:22:34.147Z,67.47
2022-12-08T06:25:00.595Z,67.28
2022-12-08T06:27:27.019Z,66.89
2022-12-08T06:29:53.482Z,67.15
2022-12-08T06:32:24.343Z,67.63
2022-12-08T06:34:53.597Z,66.80
2022-12-08T06:37:20.023Z,67.78
2022-12-08T06:39:46.451Z,67.56
2022-12-08T06:42:12.873Z,66.96
2022-12-08T06:44:39.322Z,66.90
2022-12-08T06:47:05.791Z,66.35
2022-12-08T06:49:32.235Z,66.97
2022-12-08T06:51:58.727Z,67.14
2022-12-08T06:54:25.158Z,67.08
2022-12-08T06:56:51.598Z,67.25
2022-12-08T06:59:18.026Z,66.82
2022-12-08T07:01:44.523Z,66.91
2022-12-08T07:04:11.026Z,67.15
2022-12-08T07:06:37.477Z,66.67
2022-12-08T07:09:03.964Z,67.23
2022-12-08T07:11:30.375Z,67.42
2022-12-08T07:13:56.839Z,68.05
2022-12-08T07:16:23.423Z,67.54
2022-12-08T07:18:49.898Z,66.96
2022-12-08T07:21:16.387Z,67.50
2022-12-08T07:23:42.800Z,66.95
2022-12-08T07:26:09.255Z,66.80
2022-12-08T07:28:35.780Z,66.89
2022-12-08T07:31:02.261Z,66.55
2022-12-08T07:33:28.747Z,66.34
2022-12-08T07:35:55.172Z,65.97
2022-12-08T07:38:21.721Z,66.47
2022-12-08T07:40:48.133Z,66.58
2022-12-08T07:43:14.545Z,66.67
2022-12-08T07:45:40.991Z,66.62
2022-12-08T07:48:08.540Z,66.20
2022-12-08T07:50:35.139Z,66.16
2022-12-08T07:53:02.724Z,66.40
2022-12-08T07:55:29.314Z,66.25
2022-12-08T07:57:55.927Z,66.84
2022-12-08T08:00:22.530Z,66.78
2022-12-08T08:02:49.044Z,67.34
2022-12-08T08:05:15.535Z,67.24
2022-12-08T08:07:42.089Z,67.00
2022-12-08T08:10:08.627Z,66.87
2022-12-08T08:12:35.085Z,66.90
2022-12-08T08:15:01.613Z,67.28
2022-12-08T08:17:28.275Z,67.13
2022-12-08T08:19:55.262Z,67.54
2022-12-08T11:49:41.296Z,59.25
2022-12-08T11:52:08.770Z,59.37
2022-12-08T11:54:35.427Z,60.48
2022-12-08T11:57:01.904Z,61.07
2022-12-08T11:59:28.319Z,60.63
2022-12-08T12:01:54.826Z,59.84
2022-12-08T12:04:21.358Z,59.40
2022-12-08T12:06:54.642Z,59.58
2022-12-08T12:09:21.912Z,59.28
2022-12-08T12:11:48.301Z,58.82
2022-12-08T12:14:14.724Z,58.65
2022-12-08T12:16:41.243Z,58.44
2022-12-08T12:19:07.722Z,57.60
2022-12-08T12:21:34.190Z,57.77
2022-12-08T12:24:01.238Z,56.65
2022-12-08T12:26:27.878Z,56.92
2022-12-08T12:28:54.542Z,56.81
2022-12-08T12:31:21.188Z,56.29
2022-12-08T12:33:47.852Z,55.84
2022-12-08T12:36:14.482Z,56.08
2022-12-08T12:38:41.115Z,56.73
2022-12-08T12:41:07.769Z,57.19
2022-12-08T12:46:19.158Z,57.11
2022-12-08T12:48:46.743Z,56.94
2022-12-08T12:51:13.342Z,56.79
2022-12-08T12:53:40.917Z,55.90
2022-12-08T12:56:09.539Z,57.58
2022-12-08T12:58:37.118Z,57.48
2022-12-08T13:01:03.578Z,58.45
2022-12-08T13:03:30.061Z,56.61
2022-12-08T13:05:56.517Z,57.36
2022-12-08T13:08:23.061Z,57.51
2022-12-08T13:10:49.584Z,57.92
2022-12-08T13:13:16.006Z,57.01
2022-12-08T13:15:42.487Z,56.98
2022-12-08T13:18:09.829Z,57.26
2022-12-08T13:20:37.417Z,56.66
2022-12-08T13:23:05.014Z,56.56
2022-12-08T13:25:36.651Z,56.48
2022-12-08T13:28:04.358Z,56.87
2022-12-08T13:35:39.911Z,58.24
2022-12-08T13:38:06.785Z,58.52
2022-12-08T13:40:34.378Z,57.73
2022-12-08T13:43:01.994Z,57.48
2022-12-08T13:46:04.342Z,56.40
2022-12-08T13:48:35.575Z,57.56
2022-12-08T13:54:51.850Z,55.90
2022-12-08T13:57:02.701Z,57.33
2022-12-08T13:59:22.936Z,58.28
2022-12-08T14:01:49.611Z,57.62
2022-12-08T14:07:03.808Z,58.83
2022-12-08T14:09:30.433Z,59.24
2022-12-08T14:11:57.998Z,58.66
2022-12-08T14:14:53.689Z,57.92
2022-12-08T14:17:11.260Z,57.38
2022-12-08T14:19:38.843Z,57.88
2022-12-08T14:22:07.952Z,58.95
2022-12-08T14:24:36.037Z,57.96
2022-12-08T14:27:03.638Z,59.61
2022-12-08T14:29:32.855Z,60.10
2022-12-08T14:31:59.831Z,59.39
2022-12-08T14:34:28.421Z,59.63
2022-12-08T14:36:54.918Z,59.56
2022-12-08T14:39:21.737Z,59.48
2022-12-08T14:41:48.187Z,59.91
2022-12-08T14:44:14.656Z,61.24
2022-12-08T14:46:41.099Z,61.21
2022-12-08T14:49:07.643Z,62.33
2022-12-08T14:51:34.571Z,62.37
2022-12-08T14:54:02.208Z,61.78
2022-12-08T14:56:31.202Z,62.22
2022-12-08T14:58:59.356Z,63.09
2022-12-08T15:01:25.968Z,62.68
2022-12-08T15:03:53.557Z,63.36
2022-12-08T15:06:22.930Z,63.67
2022-12-08T15:08:49.754Z,63.53
2022-12-08T15:11:16.654Z,63.41
2022-12-08T15:13:43.970Z,64.06
2022-12-08T15:16:11.635Z,64.61
2022-12-08T15:18:39.181Z,64.55
2022-12-08T15:21:06.769Z,64.68
2022-12-08T15:23:34.360Z,65.52
2022-12-08T15:26:01.938Z,65.46
2022-12-08T15:28:30.366Z,65.15
2022-12-08T15:30:58.238Z,65.43
2022-12-08T15:33:25.742Z,65.60
2022-12-08T15:35:52.427Z,66.06
2022-12-08T15:38:19.921Z,66.15
2022-12-08T15:40:46.520Z,66.24
2022-12-08T15:43:14.140Z,66.01
2022-12-08T15:45:54.856Z,66.70
2022-12-08T15:48:25.386Z,66.57
2022-12-08T15:50:51.987Z,67.15
2022-12-08T15:53:19.574Z,67.16
2022-12-08T15:56:03.849Z,67.22
2022-12-08T16:01:19.558Z,67.72
2022-12-08T16:09:21.643Z,67.94
2022-12-08T16:12:06.039Z,67.35
2022-12-08T16:17:20.420Z,68.13
2022-12-08T16:19:48.010Z,68.05
2022-12-08T16:25:17.641Z,68.23
2022-12-08T16:28:12.289Z,68.19
2022-12-08T16:30:32.930Z,68.10
2022-12-08T16:32:59.457Z,67.78
2022-12-08T16:35:25.940Z,68.32
2022-12-08T16:37:52.389Z,68.28
2022-12-08T16:40:18.862Z,68.25
2022-12-08T16:42:45.589Z,68.15
2022-12-08T16:45:13.153Z,68.23
2022-12-08T16:47:39.775Z,68.00
2022-12-08T16:50:06.219Z,67.70
2022-12-08T16:52:32.682Z,67.69
2022-12-08T16:54:59.182Z,67.78
2022-12-08T16:57:26.220Z,68.22
2022-12-08T16:59:52.854Z,68.14
2022-12-08T17:02:21.976Z,68.51
2022-12-08T17:04:49.108Z,67.85
2022-12-08T17:07:16.685Z,68.07
2022-12-08T17:09:43.542Z,67.86
2022-12-08T17:12:10.032Z,67.97
2022-12-08T17:14:36.447Z,68.01
2022-12-08T17:17:03.429Z,68.24
2022-12-08T17:19:30.701Z,68.32
2022-12-08T17:21:58.306Z,68.23
2022-12-08T17:24:25.889Z,67.85
2022-12-08T17:26:52.478Z,67.97
2022-12-08T17:29:19.085Z,68.48
2022-12-08T17:31:45.700Z,68.71
2022-12-08T17:34:13.285Z,69.02
2022-12-08T17:36:40.854Z,68.96
2022-12-08T17:39:07.452Z,69.39
2022-12-08T17:41:34.030Z,69.30
2022-12-08T17:44:01.657Z,69.36
2022-12-08T17:46:29.289Z,69.17
2022-12-08T17:48:56.189Z,69.28
2022-12-08T17:51:23.418Z,69.54
2022-12-08T17:53:51.018Z,70.04
2022-12-08T17:56:18.629Z,69.65
2022-12-08T17:58:49.855Z,69.71
2022-12-08T18:01:20.681Z,69.58
2022-12-08T18:03:47.248Z,69.56
2022-12-08T18:06:14.002Z,69.58
2022-12-08T18:08:40.468Z,69.86
2022-12-08T18:11:07.188Z,70.02
2022-12-08T18:13:34.793Z,69.77
2022-12-08T18:16:03.398Z,69.31
2022-12-08T18:18:29.971Z,69.89
2022-12-08T18:20:56.457Z,69.19
2022-12-08T18:23:23.176Z,69.65
2022-12-08T18:25:50.864Z,68.97
2022-12-08T18:28:18.365Z,69.27
2022-12-08T18:30:46.032Z,68.86
2022-12-08T18:33:13.554Z,69.23
2022-12-08T18:35:41.140Z,69.33
2022-12-08T18:38:07.732Z,69.49
2022-12-08T18:40:34.329Z,69.57
2022-12-08T18:43:00.931Z,69.41
2022-12-08T18:45:27.544Z,69.67
2022-12-08T18:47:54.129Z,69.61
2022-12-08T18:50:20.772Z,69.89
2022-12-08T18:52:48.315Z,69.40
2022-12-08T18:55:14.977Z,68.93
2022-12-08T18:57:42.571Z,68.53
2022-12-08T19:00:09.435Z,68.75
2022-12-08T19:02:36.798Z,68.79
2022-12-08T19:05:04.011Z,68.23
2022-12-08T19:07:30.449Z,68.28
2022-12-08T19:09:57.422Z,68.15
2022-12-08T19:12:23.909Z,68.54
2022-12-08T19:14:50.338Z,68.48
2022-12-08T19:17:16.813Z,68.12
2022-12-08T19:19:43.291Z,68.38
2022-12-08T19:22:10.143Z,68.48
2022-12-08T19:24:36.611Z,68.50
2022-12-08T19:27:03.686Z,68.60
2022-12-08T19:29:30.731Z,68.53
2022-12-08T19:31:57.859Z,68.70
2022-12-08T19:34:25.428Z,68.80
2022-12-08T19:36:52.048Z,68.01
2022-12-08T19:39:21.029Z,68.35
2022-12-08T19:41:49.287Z,67.82
2022-12-08T19:44:16.884Z,67.43
2022-12-08T19:46:44.603Z,66.96
2022-12-08T19:49:11.939Z,66.90
2022-12-08T19:51:39.693Z,66.28
2022-12-08T19:54:07.322Z,66.66
2022-12-08T19:56:33.935Z,66.56
2022-12-08T19:59:02.522Z,65.95
2022-12-08T20:01:30.205Z,66.67
2022-12-08T20:03:57.732Z,66.04
2022-12-08T20:06:24.312Z,66.59
2022-12-08T20:08:52.025Z,67.19
2022-12-08T20:11:19.508Z,67.38
2022-12-08T20:13:46.117Z,67.13
2022-12-08T20:16:12.689Z,66.86
2022-12-08T20:18:39.388Z,67.19
2022-12-08T20:21:08.342Z,66.56
2022-12-08T20:23:37.783Z,67.13
2022-12-08T20:26:05.348Z,66.49
2022-12-08T20:28:32.820Z,67.05
2022-12-08T20:30:59.504Z,67.49
2022-12-08T20:33:27.052Z,67.33
2022-12-08T20:35:58.825Z,67.98
2022-12-08T20:38:26.244Z,67.86
2022-12-08T20:40:52.869Z,66.69
2022-12-08T20:43:20.468Z,67.10
2022-12-08T20:45:48.011Z,67.35
2022-12-08T20:48:15.675Z,67.29
2022-12-08T20:50:43.232Z,66.60
2022-12-08T20:53:09.920Z,67.11
2022-12-08T20:55:37.682Z,66.91
2022-12-08T20:58:05.249Z,66.87
2022-12-08T21:00:32.850Z,66.94
2022-12-08T21:03:00.808Z,66.94
2022-12-08T21:05:28.259Z,66.61
2022-12-08T21:07:55.855Z,67.21
2022-12-08T21:10:23.445Z,66.70
2022-12-08T21:12:50.365Z,67.20
2022-12-08T21:15:17.642Z,66.84
2022-12-08T21:17:45.255Z,66.85
2022-12-08T21:20:12.945Z,66.32
2022-12-08T21:22:40.551Z,66.18
2022-12-08T21:25:08.217Z,66.28
2022-12-08T21:27:35.768Z,66.75
2022-12-08T21:30:03.745Z,67.17
2022-12-08T21:32:31.092Z,66.50
2022-12-08T21:34:58.667Z,66.84
2022-12-08T21:37:26.157Z,65.88
2022-12-08T21:39:52.856Z,66.02
2022-12-08T21:42:22.715Z,66.73
2022-12-08T21:44:50.234Z,67.18
2022-12-08T21:47:17.781Z,67.57
2022-12-08T21:49:45.328Z,67.03
2022-12-08T21:52:12.981Z,67.92
2022-12-08T21:54:40.569Z,67.74
2022-12-08T21:57:09.309Z,67.23
2022-12-08T21:59:36.889Z,67.61
2022-12-08T22:02:04.522Z,67.87
2022-12-08T22:04:32.184Z,67.58
2022-12-08T22:06:59.662Z,66.24
2022-12-08T22:09:26.323Z,67.04
2022-12-08T22:11:55.559Z,66.77
2022-12-08T22:14:22.529Z,67.23
2022-12-08T22:16:49.345Z,67.84
2022-12-08T22:19:16.756Z,68.47
2022-12-08T22:21:43.249Z,67.88
2022-12-08T22:24:09.935Z,68.19
2022-12-08T22:26:36.744Z,68.22
2022-12-08T22:29:04.191Z,67.63
2022-12-08T22:31:30.858Z,68.18
2022-12-08T22:33:58.393Z,67.65
2022-12-08T22:36:25.062Z,67.86
2022-12-08T22:38:52.862Z,68.44
2022-12-08T22:41:20.247Z,68.82
2022-12-08T22:43:47.903Z,68.85
2022-12-08T22:46:15.547Z,68.68
2022-12-08T22:48:43.205Z,68.17
2022-12-08T22:51:10.685Z,67.68
2022-12-08T22:53:38.192Z,68.12
2022-12-08T22:56:05.834Z,67.68
2022-12-08T22:58:32.442Z,67.70
2022-12-08T23:01:00.038Z,67.77
2022-12-08T23:03:26.647Z,68.05
2022-12-08T23:05:53.149Z,67.60
2022-12-08T23:08:20.924Z,67.25
2022-12-08T23:10:48.384Z,67.24
2022-12-08T23:13:14.951Z,67.56
2022-12-08T23:15:42.621Z,67.03
2022-12-08T23:18:10.320Z,67.48
2022-12-08T23:20:37.817Z,67.96
2022-12-08T23:23:05.437Z,67.77
2022-12-08T23:25:33.079Z,68.20
2022-12-08T23:28:00.773Z,68.95
2022-12-08T23:30:27.374Z,69.35
2022-12-08T23:32:54.758Z,69.39
2022-12-08T23:35:22.334Z,69.14
2022-12-08T23:37:49.892Z,69.51
2022-12-08T23:40:17.691Z,70.33
2022-12-08T23:42:45.069Z,70.79
2022-12-08T23:45:12.954Z,71.63
2022-12-08T23:47:41.442Z,71.65
2022-12-08T23:50:09.054Z,71.90
2022-12-08T23:52:39.250Z,72.29
2022-12-08T23:55:07.079Z,72.26
2022-12-08T23:57:34.708Z,71.84
